createdAt,value
2018-01-08T14:11:11.085Z,102853.75
2018-01-08T14:13:39.552Z,102854.16
2018-01-08T14:16:08.442Z,102856.36
2018-01-08T14:18:36.739Z,102863.78
2018-01-08T14:21:05.062Z,102868.19
2018-01-08T14:23:34.371Z,102872.27
2018-01-08T14:26:03.163Z,102859.57
2018-01-08T14:28:31.508Z,102857.76
2018-01-08T14:30:59.961Z,102864.64
2018-01-08T14:33:28.263Z,102864.53
2018-01-08T14:35:56.567Z,102864.28
2018-01-08T14:38:24.937Z,102861.20
2018-01-08T14:40:53.337Z,102864.12
2018-01-08T14:43:21.896Z,102864.74
2018-01-08T14:45:50.302Z,102869.55
2018-01-08T14:48:18.660Z,102869.95
2018-01-08T14:50:47.100Z,102869.97
2018-01-08T14:53:15.383Z,102871.06
2018-01-08T14:55:43.692Z,102870.22
2018-01-08T14:58:11.981Z,102868.42
2018-01-08T15:00:40.480Z,102873.67
2018-01-08T15:03:08.922Z,102874.42
2018-01-08T15:05:39.040Z,102879.50
2018-01-08T15:08:07.375Z,102870.93
2018-01-08T15:10:35.699Z,102871.16
2018-01-08T15:13:04.002Z,102874.00
2018-01-08T15:15:32.432Z,102873.14
2018-01-08T15:18:00.752Z,102872.05
2018-01-08T15:20:29.058Z,102866.38
2018-01-08T15:22:57.391Z,102868.34
2018-01-08T15:25:25.898Z,102863.05
2018-01-08T15:27:54.995Z,102871.33
2018-01-08T15:30:23.502Z,102872.42
2018-01-08T15:32:51.801Z,102877.67
2018-01-08T15:35:20.144Z,102874.80
2018-01-08T15:37:48.539Z,102879.67
2018-01-08T15:40:16.979Z,102874.79
2018-01-08T15:42:45.264Z,102874.19
2018-01-08T15:45:13.796Z,102865.53
2018-01-08T15:47:42.107Z,102861.31
2018-01-08T15:50:10.544Z,102870.09
2018-01-08T15:52:38.992Z,102866.70
2018-01-08T15:55:07.392Z,102869.41
2018-01-08T15:57:35.724Z,102863.69
2018-01-08T16:00:04.061Z,102858.72
2018-01-08T16:02:32.406Z,102861.00
2018-01-08T16:05:00.879Z,102851.48
2018-01-08T16:07:29.200Z,102855.61
2018-01-08T16:09:57.542Z,102856.70
2018-01-08T16:12:25.879Z,102846.08
2018-01-08T16:14:54.166Z,102856.35
2018-01-08T16:17:22.559Z,102856.17
2018-01-08T16:19:50.823Z,102861.32
2018-01-08T16:22:19.172Z,102853.25
2018-01-08T16:24:47.563Z,102851.55
2018-01-08T16:27:16.315Z,102853.33
2018-01-08T16:29:47.010Z,102859.88
2018-01-08T16:32:15.344Z,102854.41
2018-01-08T16:34:43.638Z,102856.03
2018-01-08T16:37:12.178Z,102859.81
2018-01-08T16:39:40.631Z,102849.37
2018-01-08T16:42:08.965Z,102852.88
2018-01-08T16:44:37.272Z,102853.30
2018-01-08T16:47:05.623Z,102860.20
2018-01-08T16:49:34.016Z,102852.97
2018-01-08T16:52:02.375Z,102853.97
2018-01-08T16:54:37.420Z,102851.78
2018-01-08T16:57:05.787Z,102854.31
2018-01-08T16:59:34.067Z,102854.13
2018-01-08T17:02:02.410Z,102848.00
2018-01-08T17:04:30.961Z,102841.66
2018-01-08T17:06:59.376Z,102841.77
2018-01-08T17:09:27.640Z,102840.73
2018-01-08T17:11:56.016Z,102841.85
2018-01-08T17:14:24.437Z,102841.93
2018-01-08T17:16:52.865Z,102836.01
2018-01-08T17:19:24.039Z,102840.47
2018-01-08T17:21:54.219Z,102827.85
2018-01-08T17:24:22.884Z,102821.88
2018-01-08T17:26:51.741Z,102817.50
2018-01-08T17:29:20.003Z,102818.00
2018-01-08T17:31:48.360Z,102829.04
2018-01-08T17:34:16.843Z,102826.08
2018-01-08T17:36:45.168Z,102826.77
2018-01-08T17:39:13.576Z,102830.89
2018-01-08T17:41:42.102Z,102828.35
2018-01-08T17:44:10.541Z,102834.58
2018-01-08T17:46:39.038Z,102834.58
2018-01-08T17:49:07.327Z,102833.08
2018-01-08T17:51:35.799Z,102831.97
2018-01-08T17:54:04.282Z,102841.08
2018-01-08T17:56:32.915Z,102845.36
2018-01-08T17:59:01.272Z,102843.66
2018-01-08T18:01:29.637Z,102848.55
2018-01-08T18:03:57.962Z,102846.36
2018-01-08T18:06:26.460Z,102845.97
2018-01-08T18:08:54.768Z,102836.35
2018-01-08T18:11:23.138Z,102835.59
2018-01-08T18:13:51.508Z,102835.08
2018-01-08T18:16:19.891Z,102839.70
2018-01-08T18:18:48.287Z,102845.62
2018-01-08T18:21:16.759Z,102840.70
2018-01-08T18:23:45.134Z,102846.78
2018-01-08T18:26:13.935Z,102842.24
2018-01-08T18:28:42.823Z,102847.78
2018-01-08T18:31:11.312Z,102848.09
2018-01-08T18:33:42.799Z,102849.70
2018-01-08T18:36:11.477Z,102849.12
2018-01-08T18:38:39.859Z,102843.63
2018-01-08T18:41:08.581Z,102833.20
2018-01-08T18:43:36.874Z,102838.52
2018-01-08T18:46:05.242Z,102836.16
2018-01-08T18:48:33.635Z,102841.97
2018-01-08T18:51:02.071Z,102843.16
2018-01-08T18:53:31.087Z,102830.93
2018-01-08T18:55:59.680Z,102836.47
2018-01-08T18:58:28.285Z,102842.05
2018-01-08T19:00:57.264Z,102834.70
2018-01-08T19:03:25.658Z,102824.85
2018-01-08T19:05:54.079Z,102823.08
2018-01-08T19:08:22.446Z,102824.08
2018-01-08T19:10:50.772Z,102811.20
2018-01-08T19:13:19.144Z,102814.08
2018-01-08T19:15:47.530Z,102804.81
2018-01-08T19:18:15.930Z,102803.88
2018-01-08T19:20:44.280Z,102806.16
2018-01-08T19:23:13.560Z,102792.00
2018-01-08T19:25:42.485Z,102791.00
2018-01-08T19:28:12.483Z,102782.39
2018-01-08T19:30:40.828Z,102781.84
2018-01-08T19:33:09.129Z,102781.84
2018-01-08T19:35:37.506Z,102777.00
2018-01-08T19:38:05.804Z,102779.70
2018-01-08T19:40:34.222Z,102768.00
2018-01-08T19:43:02.661Z,102777.53
2018-01-08T19:45:31.167Z,102776.84
2018-01-08T19:47:59.503Z,102782.50
2018-01-08T19:50:28.147Z,102782.61
2018-01-08T19:52:56.600Z,102771.92
2018-01-08T19:55:24.954Z,102768.38
2018-01-08T19:57:53.575Z,102772.77
2018-01-08T20:00:22.059Z,102774.50
2018-01-08T20:02:50.796Z,102774.23
2018-01-08T20:05:19.144Z,102771.62
2018-01-08T20:07:47.608Z,102773.80
2018-01-08T20:10:22.635Z,102771.26
2018-01-08T20:12:51.998Z,102776.34
2018-01-08T20:15:20.318Z,102784.73
2018-01-08T20:17:49.437Z,102775.00
2018-01-08T20:20:17.907Z,102778.84
2018-01-08T20:22:46.376Z,102780.69
2018-01-08T20:25:14.687Z,102783.66
2018-01-08T20:27:43.136Z,102781.19
2018-01-08T20:30:11.452Z,102787.69
2018-01-08T20:32:39.906Z,102780.03
2018-01-08T20:35:08.262Z,102773.03
2018-01-08T20:37:45.173Z,102776.14
2018-01-08T20:40:13.916Z,102773.60
2018-01-08T20:42:42.211Z,102776.72
2018-01-08T20:45:10.580Z,102774.38
2018-01-08T20:47:38.928Z,102772.80
2018-01-08T20:50:07.275Z,102766.88
2018-01-08T20:52:35.684Z,102766.99
2018-01-08T20:55:04.051Z,102775.87
2018-01-08T20:57:33.256Z,102770.84
2018-01-08T21:00:02.112Z,102765.65
2018-01-08T21:02:30.709Z,102758.80
2018-01-08T21:04:59.015Z,102764.18
2018-01-08T21:07:27.904Z,102761.77
2018-01-08T21:09:56.236Z,102755.75
2018-01-08T21:12:24.599Z,102754.84
2018-01-08T21:14:55.147Z,102748.89
2018-01-08T21:17:24.970Z,102738.62
2018-01-08T21:19:57.816Z,102733.78
2018-01-08T21:22:27.890Z,102739.73
2018-01-08T21:24:56.181Z,102739.23
2018-01-08T21:27:24.561Z,102740.73
2018-01-08T21:29:52.829Z,102746.05
2018-01-08T21:32:21.255Z,102735.09
2018-01-08T21:34:49.540Z,102735.43
2018-01-08T21:37:18.031Z,102732.31
2018-01-08T21:39:46.431Z,102723.25
2018-01-08T21:42:14.782Z,102717.67
2018-01-08T21:44:43.191Z,102714.67
2018-01-08T21:47:11.711Z,102707.67
2018-01-08T21:49:40.024Z,102710.52
2018-01-08T21:52:08.368Z,102705.67
2018-01-08T21:54:36.716Z,102704.91
2018-01-08T21:57:05.212Z,102700.53
2018-01-08T21:59:33.614Z,102695.33
2018-01-08T22:02:01.988Z,102700.45
2018-01-08T22:04:30.336Z,102689.16
2018-01-08T22:06:58.934Z,102694.87
2018-01-08T22:09:27.212Z,102688.15
2018-01-08T22:11:55.682Z,102684.88
2018-01-08T22:14:24.030Z,102683.08
2018-01-08T22:16:52.480Z,102675.20
2018-01-08T22:19:22.444Z,102670.97
2018-01-08T22:21:51.341Z,102675.96
2018-01-08T22:24:19.699Z,102663.25
2018-01-08T22:26:48.056Z,102652.33
2018-01-08T22:29:16.477Z,102636.19
2018-01-08T22:31:44.962Z,102627.85
2018-01-08T22:34:13.699Z,102621.39
2018-01-08T22:36:48.683Z,102630.62
2018-01-08T22:39:17.432Z,102623.84
2018-01-08T22:41:45.732Z,102624.58
2018-01-08T22:44:14.078Z,102617.34
2018-01-08T22:46:42.691Z,102618.19
2018-01-08T22:49:11.787Z,102607.44
2018-01-08T22:51:40.455Z,102600.64
2018-01-08T22:54:13.356Z,102614.51
2018-01-08T22:56:43.524Z,102609.70
2018-01-08T22:59:12.329Z,102599.02
2018-01-08T23:01:47.011Z,102598.68
2018-01-08T23:04:15.760Z,102605.83
2018-01-08T23:06:45.581Z,102597.25
2018-01-08T23:09:17.614Z,102603.67
2018-01-08T23:11:48.733Z,102602.81
2018-01-08T23:14:17.342Z,102587.59
2018-01-08T23:16:45.784Z,102582.14
2018-01-08T23:19:14.446Z,102585.58
2018-01-08T23:21:42.934Z,102582.64
2018-01-08T23:24:11.976Z,102565.75
2018-01-08T23:26:40.415Z,102578.92
2018-01-08T23:29:09.800Z,102572.37
2018-01-08T23:31:40.995Z,102569.70
2018-01-08T23:34:11.119Z,102560.95
2018-01-08T23:36:40.091Z,102561.97
2018-01-08T23:39:08.532Z,102557.92
2018-01-08T23:41:36.987Z,102540.25
2018-01-08T23:44:07.030Z,102544.48
2018-01-08T23:46:42.279Z,102535.72
2018-01-08T23:49:11.315Z,102524.52
2018-01-08T23:51:39.651Z,102522.87
2018-01-08T23:54:08.224Z,102530.17
2018-01-08T23:56:36.628Z,102501.33
2018-01-08T23:59:05.073Z,102522.03
